Time;durP1;ratioP1;P1;durP2;ratioP2;P2;SDS_P1;SDS_P2;PMS_P1;PMS_P2;Temp;Humidity;BMP_temperature;BMP_pressure;BME280_temperature;BME280_humidity;BME280_pressure;Samples;Min_cycle;Max_cycle;Signal;HPM_P1;HPM_P2
2023/10/09 00:01:13;;;;;;;;;;;13.60;99.90;;;;;;7321742;19;9762;-71
2023/10/09 00:03:43;;;;;;;;;;;13.60;99.90;;;;;;7320936;19;9207;-71
2023/10/09 00:06:13;;;;;;;;;;;13.60;99.90;;;;;;7320241;19;9427;-71
2023/10/09 00:08:44;;;;;;;;;;;13.60;99.90;;;;;;7318702;19;9418;-71
2023/10/09 00:11:16;;;;;;;;;;;13.60;99.90;;;;;;7320801;19;9442;-71
2023/10/09 00:13:57;;;;;;;;;;;13.60;99.90;;;;;;7318597;19;9497;-71
2023/10/09 00:16:36;;;;;;;;;;;13.60;99.90;;;;;;7318338;19;9548;-70
2023/10/09 00:19:17;;;;;;;;;;;13.60;99.90;;;;;;7321976;19;9406;-71
2023/10/09 00:21:47;;;;;;;;;;;13.60;99.90;;;;;;7320833;19;9344;-71
2023/10/09 00:24:23;;;;;;;;;;;13.60;99.90;;;;;;7323163;19;9139;-71
2023/10/09 00:26:55;;;;;;;;;;;13.60;99.90;;;;;;7309693;19;9534;-70
2023/10/09 00:29:28;;;;;;;;;;;13.60;99.90;;;;;;7319346;19;9303;-71
2023/10/09 00:32:04;;;;;;;;;;;13.60;99.90;;;;;;7319356;19;9237;-70
2023/10/09 00:34:39;;;;;;;;;;;13.60;99.90;;;;;;7319344;19;9488;-71
2023/10/09 00:37:10;;;;;;;;;;;13.60;99.90;;;;;;7321362;19;9494;-70
2023/10/09 00:39:44;;;;;;;;;;;13.60;99.90;;;;;;7321272;19;9270;-70
2023/10/09 00:42:22;;;;;;;;;;;13.60;99.90;;;;;;7316437;19;9300;-71
2023/10/09 00:44:54;;;;;;;;;;;13.60;99.90;;;;;;7320779;19;10703;-70
2023/10/09 00:47:26;;;;;;;;;;;13.60;99.90;;;;;;7319080;19;9124;-70
2023/10/09 00:50:10;;;;;;;;;;;13.60;99.90;;;;;;7319609;19;9235;-71
2023/10/09 00:52:43;;;;;;;;;;;13.60;99.90;;;;;;7318952;19;9461;-71
2023/10/09 00:55:21;;;;;;;;;;;13.60;99.90;;;;;;7317486;19;10761;-70
2023/10/09 00:57:59;;;;;;;;;;;13.60;99.90;;;;;;7318197;19;10196;-70
2023/10/09 01:00:45;;;;;;;;;;;13.60;99.90;;;;;;7321990;19;9419;-70
2023/10/09 01:03:22;;;;;;;;;;;13.60;99.90;;;;;;7318748;19;9336;-71
2023/10/09 01:05:57;;;;;;;;;;;13.60;99.90;;;;;;7320658;19;9185;-70
2023/10/09 01:08:30;;;;;;;;;;;13.60;99.90;;;;;;7322537;19;9227;-70
2023/10/09 01:11:08;;;;;;;;;;;13.60;99.90;;;;;;7322819;19;9255;-71
2023/10/09 01:13:52;;;;;;;;;;;13.60;99.90;;;;;;7321913;19;9269;-70
2023/10/09 01:16:26;;;;;;;;;;;13.60;99.90;;;;;;7319472;19;9293;-71
2023/10/09 01:18:57;;;;;;;;;;;13.60;99.90;;;;;;7320779;19;9036;-70
2023/10/09 01:21:27;;;;;;;;;;;13.60;99.90;;;;;;7321445;19;9522;-70
2023/10/09 01:24:08;;;;;;;;;;;13.60;99.90;;;;;;7321495;19;9248;-70
2023/10/09 01:26:44;;;;;;;;;;;13.60;99.90;;;;;;7314921;19;9269;-71
2023/10/09 01:29:18;;;;;;;;;;;13.60;99.90;;;;;;7315346;19;9545;-71
2023/10/09 01:31:51;;;;;;;;;;;13.70;99.90;;;;;;7317266;19;9320;-70
2023/10/09 01:34:23;;;;;;;;;;;13.60;99.90;;;;;;7317965;19;9583;-71
2023/10/09 01:36:55;;;;;;;;;;;13.70;99.90;;;;;;7322091;19;9304;-70
2023/10/09 01:39:28;;;;;;;;;;;13.70;99.90;;;;;;7323161;19;9488;-70
2023/10/09 01:42:01;;;;;;;;;;;13.70;99.90;;;;;;7320073;19;9244;-70
2023/10/09 01:44:43;;;;;;;;;;;13.70;99.90;;;;;;7320307;19;9257;-71
2023/10/09 01:47:14;;;;;;;;;;;13.70;99.90;;;;;;7319247;19;9175;-71
2023/10/09 01:49:44;;;;;;;;;;;13.60;99.90;;;;;;7322621;19;9459;-71
2023/10/09 01:52:16;;;;;;;;;;;13.60;99.90;;;;;;7320644;19;9453;-71
2023/10/09 01:54:49;;;;;;;;;;;13.60;99.90;;;;;;7317630;19;9122;-70
2023/10/09 01:57:22;;;;;;;;;;;13.60;99.90;;;;;;7320616;19;9187;-71
2023/10/09 01:59:53;;;;;;;;;;;13.60;99.90;;;;;;7320604;19;9266;-70
2023/10/09 02:02:33;;;;;;;;;;;13.60;99.90;;;;;;7318316;19;9448;-71
2023/10/09 02:05:10;;;;;;;;;;;13.60;99.90;;;;;;7320608;19;9229;-70
2023/10/09 02:07:51;;;;;;;;;;;13.60;99.90;;;;;;7320746;19;9300;-71
2023/10/09 02:10:37;;;;;;;;;;;13.60;99.90;;;;;;7320727;19;9403;-71
2023/10/09 02:13:10;;;;;;;;;;;13.70;99.90;;;;;;7320098;19;9266;-71
2023/10/09 02:15:51;;;;;;;;;;;13.70;99.90;;;;;;7318791;19;9277;-71
2023/10/09 02:18:24;;;;;;;;;;;13.80;99.90;;;;;;7319672;19;9651;-71
2023/10/09 02:21:01;;;;;;;;;;;13.80;99.90;;;;;;7317250;19;10712;-71
2023/10/09 02:23:39;;;;;;;;;;;13.80;99.90;;;;;;7320338;19;9233;-71
2023/10/09 02:26:17;;;;;;;;;;;13.80;99.90;;;;;;7316355;19;9237;-71
2023/10/09 02:28:52;;;;;;;;;;;13.80;99.90;;;;;;7320201;19;9530;-71
2023/10/09 02:31:23;;;;;;;;;;;13.80;99.90;;;;;;7319463;19;9621;-71
2023/10/09 02:33:54;;;;;;;;;;;13.80;99.90;;;;;;7318609;19;9176;-70
2023/10/09 02:36:24;;;;;;;;;;;13.90;99.90;;;;;;7320666;19;10268;-70
2023/10/09 02:38:56;;;;;;;;;;;13.80;99.90;;;;;;7318109;19;9541;-71
2023/10/09 02:41:28;;;;;;;;;;;13.90;99.90;;;;;;7320362;19;11017;-71
2023/10/09 02:44:04;;;;;;;;;;;13.90;99.90;;;;;;7320281;19;9412;-71
2023/10/09 02:46:34;;;;;;;;;;;13.80;99.90;;;;;;7317653;19;9229;-70
2023/10/09 02:49:06;;;;;;;;;;;13.80;99.90;;;;;;7319732;19;9071;-71
2023/10/09 02:51:41;;;;;;;;;;;13.80;99.90;;;;;;7319778;19;9218;-70
2023/10/09 02:54:18;;;;;;;;;;;13.80;99.90;;;;;;7319095;19;9231;-71
2023/10/09 02:56:55;;;;;;;;;;;13.80;99.90;;;;;;7317385;19;9202;-71
2023/10/09 02:59:24;;;;;;;;;;;13.80;99.90;;;;;;7326155;19;9639;-71
2023/10/09 03:01:54;;;;;;;;;;;13.80;99.90;;;;;;7324604;19;9729;-71
2023/10/09 03:04:23;;;;;;;;;;;13.80;99.90;;;;;;7323665;19;9417;-71
2023/10/09 03:06:50;;;;;;;;;;;13.80;99.90;;;;;;7325378;19;9500;-71
2023/10/09 03:09:26;;;;;;;;;;;13.90;99.90;;;;;;7324491;19;9269;-71
2023/10/09 03:12:02;;;;;;;;;;;13.90;99.90;;;;;;7324066;19;9261;-71
2023/10/09 03:14:35;;;;;;;;;;;14.00;99.90;;;;;;7323709;19;9246;-71
2023/10/09 03:17:04;;;;;;;;;;;14.00;99.90;;;;;;7320555;19;9302;-71
2023/10/09 03:19:37;;;;;;;;;;;14.00;99.90;;;;;;7322080;19;9264;-71
2023/10/09 03:22:04;;;;;;;;;;;14.00;99.90;;;;;;7324305;19;9457;-71
2023/10/09 03:24:35;;;;;;;;;;;14.00;99.90;;;;;;7322920;19;9322;-71
2023/10/09 03:27:06;;;;;;;;;;;13.90;99.90;;;;;;7323265;19;9341;-71
2023/10/09 03:29:37;;;;;;;;;;;13.90;99.90;;;;;;7325653;19;9121;-71
2023/10/09 03:32:06;;;;;;;;;;;13.90;99.90;;;;;;7321562;19;9485;-70
2023/10/09 03:34:35;;;;;;;;;;;13.90;99.90;;;;;;7325180;19;9174;-71
2023/10/09 03:37:20;;;;;;;;;;;13.90;99.90;;;;;;7324725;19;10740;-71
2023/10/09 03:39:54;;;;;;;;;;;13.80;99.90;;;;;;7323910;19;9320;-71
2023/10/09 03:42:26;;;;;;;;;;;13.90;99.90;;;;;;7322719;19;9128;-70
2023/10/09 03:44:57;;;;;;;;;;;13.90;99.90;;;;;;7324263;19;9194;-70
2023/10/09 03:47:27;;;;;;;;;;;13.90;99.90;;;;;;7322685;19;9144;-71
2023/10/09 03:49:57;;;;;;;;;;;13.90;99.90;;;;;;7323803;19;9133;-70
2023/10/09 03:52:27;;;;;;;;;;;13.90;99.90;;;;;;7324697;19;9209;-71
2023/10/09 03:54:57;;;;;;;;;;;13.90;99.90;;;;;;7320017;19;9413;-71
2023/10/09 03:57:28;;;;;;;;;;;13.80;99.90;;;;;;7321761;19;9261;-70
2023/10/09 03:59:57;;;;;;;;;;;13.80;99.90;;;;;;7323944;19;10434;-70
2023/10/09 04:02:26;;;;;;;;;;;13.80;99.90;;;;;;7323880;19;9241;-71
2023/10/09 04:04:56;;;;;;;;;;;13.80;99.90;;;;;;7324659;19;9798;-71
2023/10/09 04:07:25;;;;;;;;;;;13.80;99.90;;;;;;7323048;19;9281;-71
2023/10/09 04:10:26;;;;;;;;;;;13.80;99.90;;;;;;7322561;19;9341;-71
2023/10/09 04:12:49;;;;;;;;;;;13.80;99.90;;;;;;7322098;19;11340;-71
2023/10/09 04:15:22;;;;;;;;;;;13.80;99.90;;;;;;7322669;19;9124;-71
2023/10/09 04:17:52;;;;;;;;;;;13.80;99.90;;;;;;7322733;19;9467;-71
2023/10/09 04:23:05;;;;;;;;;;;13.80;99.90;;;;;;7323839;19;10315;-71
2023/10/09 04:25:45;;;;;;;;;;;13.80;99.90;;;;;;7320053;19;9477;-71
2023/10/09 04:28:18;;;;;;;;;;;13.80;99.90;;;;;;7320722;19;9132;-71
2023/10/09 04:30:53;;;;;;;;;;;13.80;99.90;;;;;;7322371;19;9361;-70
2023/10/09 04:33:40;;;;;;;;;;;13.80;99.90;;;;;;7321841;19;9116;-72
2023/10/09 04:36:28;;;;;;;;;;;13.80;99.90;;;;;;7323043;19;9479;-71
2023/10/09 04:39:16;;;;;;;;;;;13.90;99.90;;;;;;7323990;19;9212;-71
2023/10/09 04:42:18;;;;;;;;;;;13.90;99.90;;;;;;7323675;19;9397;-71
2023/10/09 04:44:59;;;;;;;;;;;13.90;99.90;;;;;;7322460;19;9533;-70
2023/10/09 04:47:35;;;;;;;;;;;13.90;99.90;;;;;;7322556;19;9146;-71
2023/10/09 04:50:11;;;;;;;;;;;14.00;99.90;;;;;;7320576;19;9449;-71
2023/10/09 04:52:56;;;;;;;;;;;14.00;99.90;;;;;;7324226;19;9385;-71
2023/10/09 04:55:24;;;;;;;;;;;14.00;99.90;;;;;;7319878;19;9641;-71
2023/10/09 04:58:09;;;;;;;;;;;14.10;99.90;;;;;;7323317;19;9454;-71
2023/10/09 05:01:03;;;;;;;;;;;14.10;99.90;;;;;;7326302;19;9031;-71
2023/10/09 05:03:42;;;;;;;;;;;14.10;99.90;;;;;;7324087;19;9573;-71
2023/10/09 05:08:54;;;;;;;;;;;14.30;99.90;;;;;;7319628;19;9347;-71
2023/10/09 05:11:52;;;;;;;;;;;14.40;99.90;;;;;;7313705;19;9233;-71
2023/10/09 05:14:26;;;;;;;;;;;14.40;99.90;;;;;;7319751;19;9249;-71
2023/10/09 05:17:01;;;;;;;;;;;14.50;99.90;;;;;;7318988;19;9256;-71
2023/10/09 05:19:54;;;;;;;;;;;14.60;99.90;;;;;;7317833;19;10666;-71
2023/10/09 05:22:36;;;;;;;;;;;14.70;99.90;;;;;;7321250;19;9566;-71
2023/10/09 05:25:15;;;;;;;;;;;14.80;99.90;;;;;;7317812;19;9666;-71
2023/10/09 05:27:45;;;;;;;;;;;14.90;99.90;;;;;;7320596;19;9556;-71
2023/10/09 05:36:05;;;;;;;;;;;15.20;99.90;;;;;;7315567;19;9307;-71
2023/10/09 05:38:35;;;;;;;;;;;15.20;99.90;;;;;;7320743;19;9538;-71
2023/10/09 05:41:31;;;;;;;;;;;15.20;99.90;;;;;;7318738;19;9154;-71
2023/10/09 05:46:48;;;;;;;;;;;15.30;99.90;;;;;;7320832;19;9627;-70
2023/10/09 05:49:19;;;;;;;;;;;15.40;99.90;;;;;;7317444;19;9443;-71
2023/10/09 05:51:53;;;;;;;;;;;15.40;99.90;;;;;;7317400;19;9471;-69
2023/10/09 06:08:07;;;;;;;;;;;15.90;99.90;;;;;;7320198;19;9597;-70
2023/10/09 06:10:41;;;;;;;;;;;16.00;99.90;;;;;;7317322;19;9279;-71
2023/10/09 06:16:09;;;;;;;;;;;16.10;99.90;;;;;;7315589;19;11707;-71
2023/10/09 06:18:35;;;;;;;;;;;16.00;99.90;;;;;;7320615;19;9206;-71
2023/10/09 06:21:39;;;;;;;;;;;16.00;99.90;;;;;;7319735;19;9452;-72
2023/10/09 06:24:09;;;;;;;;;;;16.00;99.90;;;;;;7314328;19;9535;-72
2023/10/09 06:26:41;;;;;;;;;;;16.20;99.90;;;;;;7315301;19;9305;-72
2023/10/09 06:29:33;;;;;;;;;;;16.20;99.90;;;;;;7312649;19;12137;-72
2023/10/09 06:32:20;;;;;;;;;;;16.30;99.90;;;;;;7319678;19;9299;-72
2023/10/09 06:34:51;;;;;;;;;;;16.30;99.90;;;;;;7326173;19;9466;-72
2023/10/09 06:43:07;;;;;;;;;;;16.40;99.90;;;;;;7321138;19;9530;-72
2023/10/09 06:45:54;;;;;;;;;;;16.30;99.90;;;;;;7325773;19;10654;-72
2023/10/09 06:51:07;;;;;;;;;;;16.40;99.90;;;;;;7324459;19;9237;-72
2023/10/09 06:56:48;;;;;;;;;;;16.40;99.90;;;;;;7323321;19;9237;-72
2023/10/09 06:59:16;;;;;;;;;;;16.60;99.90;;;;;;7324168;19;9661;-72
2023/10/09 07:01:47;;;;;;;;;;;16.60;99.90;;;;;;7325780;19;9387;-72
2023/10/09 07:04:45;;;;;;;;;;;16.60;99.90;;;;;;7324834;19;9265;-72
2023/10/09 07:07:12;;;;;;;;;;;16.70;99.90;;;;;;7323567;19;9476;-72
2023/10/09 07:09:42;;;;;;;;;;;16.80;99.90;;;;;;7323937;19;9249;-72
2023/10/09 07:12:20;;;;;;;;;;;16.80;99.90;;;;;;7322229;19;9281;-72
2023/10/09 07:16:23;;;;;;;;;;;16.70;99.90;;;;;;7323909;19;9306;-71
2023/10/09 07:17:55;;;;;;;;;;;16.60;99.90;;;;;;7319194;19;9226;-72
2023/10/09 07:23:20;;;;;;;;;;;16.80;99.90;;;;;;7322275;19;9267;-71
2023/10/09 07:25:58;;;;;;;;;;;16.70;99.90;;;;;;7323599;19;9254;-72
2023/10/09 07:28:42;;;;;;;;;;;16.70;99.90;;;;;;7325535;19;9419;-72
2023/10/09 07:31:24;;;;;;;;;;;16.70;99.90;;;;;;7321446;19;9352;-72
2023/10/09 07:33:56;;;;;;;;;;;16.60;99.90;;;;;;7322315;19;9505;-72
2023/10/09 07:36:38;;;;;;;;;;;16.70;99.90;;;;;;7324306;19;9372;-72
2023/10/09 07:39:17;;;;;;;;;;;16.70;99.90;;;;;;7322836;19;9282;-72
2023/10/09 07:42:01;;;;;;;;;;;16.70;99.90;;;;;;7325233;19;9276;-72
2023/10/09 07:44:42;;;;;;;;;;;16.70;99.90;;;;;;7322185;19;9229;-72
2023/10/09 07:47:45;;;;;;;;;;;16.70;99.90;;;;;;7321910;19;10681;-72
2023/10/09 07:50:21;;;;;;;;;;;16.70;99.90;;;;;;7323008;19;9541;-72
2023/10/09 07:52:49;;;;;;;;;;;16.70;99.90;;;;;;7321364;19;9293;-72
2023/10/09 07:55:39;;;;;;;;;;;16.70;99.90;;;;;;7319244;19;11434;-72
2023/10/09 07:58:11;;;;;;;;;;;16.80;99.90;;;;;;7323248;19;10402;-72
2023/10/09 08:01:06;;;;;;;;;;;16.80;99.90;;;;;;7323441;19;9281;-71
2023/10/09 08:03:32;;;;;;;;;;;16.80;99.90;;;;;;7323045;19;10436;-72
2023/10/09 08:06:06;;;;;;;;;;;16.80;99.90;;;;;;7320648;19;10735;-72
2023/10/09 08:08:39;;;;;;;;;;;16.80;99.90;;;;;;7323101;19;9190;-72
2023/10/09 08:14:03;;;;;;;;;;;16.80;99.90;;;;;;7320661;19;9365;-71
2023/10/09 08:16:39;;;;;;;;;;;16.80;99.90;;;;;;7319974;19;9217;-72
2023/10/09 08:19:32;;;;;;;;;;;16.80;99.90;;;;;;7323797;19;9680;-72
2023/10/09 08:22:17;;;;;;;;;;;16.90;99.90;;;;;;7315130;19;9178;-72
2023/10/09 08:24:55;;;;;;;;;;;17.00;99.90;;;;;;7317672;19;9553;-72
2023/10/09 08:27:46;;;;;;;;;;;17.00;99.90;;;;;;7320788;19;9206;-72
2023/10/09 08:30:28;;;;;;;;;;;17.00;99.90;;;;;;7320180;19;9299;-72
2023/10/09 08:33:04;;;;;;;;;;;17.00;99.90;;;;;;7321979;19;9182;-72
2023/10/09 08:35:33;;;;;;;;;;;17.00;99.90;;;;;;7319615;19;9201;-72
2023/10/09 08:38:07;;;;;;;;;;;17.00;99.90;;;;;;7324016;19;9238;-72
2023/10/09 08:40:39;;;;;;;;;;;17.10;99.90;;;;;;7322282;19;9205;-72
2023/10/09 08:43:17;;;;;;;;;;;17.20;99.90;;;;;;7322700;19;9126;-72
2023/10/09 08:45:51;;;;;;;;;;;17.20;99.90;;;;;;7317063;19;9543;-72
2023/10/09 08:48:21;;;;;;;;;;;17.30;99.90;;;;;;7322863;19;9619;-72
2023/10/09 08:50:54;;;;;;;;;;;17.20;99.90;;;;;;7313565;19;9352;-72
2023/10/09 08:53:31;;;;;;;;;;;17.30;99.90;;;;;;7322219;19;9181;-72
2023/10/09 08:56:03;;;;;;;;;;;17.30;99.90;;;;;;7318752;19;10576;-72
2023/10/09 08:58:36;;;;;;;;;;;17.30;99.90;;;;;;7321879;19;9202;-72
2023/10/09 09:01:08;;;;;;;;;;;17.20;99.90;;;;;;7319313;19;9266;-72
2023/10/09 09:03:45;;;;;;;;;;;17.30;99.90;;;;;;7322266;19;9311;-72
2023/10/09 09:06:14;;;;;;;;;;;17.20;99.90;;;;;;7319070;19;9229;-72
2023/10/09 09:08:44;;;;;;;;;;;17.30;99.90;;;;;;7321664;19;9209;-72
2023/10/09 09:11:17;;;;;;;;;;;17.30;99.90;;;;;;7318733;19;9420;-72
2023/10/09 09:13:53;;;;;;;;;;;17.40;99.90;;;;;;7317614;19;12312;-72
2023/10/09 09:16:29;;;;;;;;;;;17.40;99.90;;;;;;7318725;19;11135;-72
2023/10/09 09:19:04;;;;;;;;;;;17.40;99.90;;;;;;7318888;19;11162;-72
2023/10/09 09:21:39;;;;;;;;;;;17.40;99.90;;;;;;7318439;19;9605;-72
2023/10/09 09:24:26;;;;;;;;;;;17.40;99.90;;;;;;7320942;19;9217;-72
2023/10/09 09:27:09;;;;;;;;;;;17.50;99.90;;;;;;7321340;19;9177;-72
2023/10/09 09:29:52;;;;;;;;;;;17.50;99.90;;;;;;7320194;19;9198;-72
2023/10/09 09:32:39;;;;;;;;;;;17.50;99.90;;;;;;7319172;19;9324;-72
2023/10/09 09:35:18;;;;;;;;;;;17.60;99.90;;;;;;7318260;19;9494;-72
2023/10/09 09:38:03;;;;;;;;;;;17.60;99.90;;;;;;7320753;19;9247;-72
2023/10/09 09:40:41;;;;;;;;;;;17.70;99.90;;;;;;7320118;19;9399;-72
2023/10/09 09:43:21;;;;;;;;;;;17.70;99.90;;;;;;7320147;19;9246;-72
2023/10/09 09:45:53;;;;;;;;;;;17.80;99.90;;;;;;7321309;19;9290;-72
2023/10/09 09:48:25;;;;;;;;;;;17.80;99.90;;;;;;7318939;19;9403;-71
2023/10/09 09:50:56;;;;;;;;;;;17.90;99.90;;;;;;7319808;19;9166;-72
2023/10/09 09:53:26;;;;;;;;;;;17.90;99.90;;;;;;7319606;19;9598;-72
2023/10/09 09:55:59;;;;;;;;;;;17.90;99.90;;;;;;7316117;19;9492;-70
2023/10/09 09:58:32;;;;;;;;;;;18.00;99.90;;;;;;7312369;19;9504;-73
2023/10/09 10:01:16;;;;;;;;;;;18.10;99.90;;;;;;7313835;19;9466;-69
2023/10/09 10:03:56;;;;;;;;;;;18.20;99.90;;;;;;7315275;19;9586;-69
2023/10/09 10:06:28;;;;;;;;;;;18.20;99.90;;;;;;7317733;19;9511;-69
2023/10/09 10:08:57;;;;;;;;;;;18.30;99.90;;;;;;7319102;19;9444;-69
2023/10/09 10:11:51;;;;;;;;;;;18.30;99.90;;;;;;7319581;19;9295;-69
2023/10/09 10:14:28;;;;;;;;;;;18.30;99.90;;;;;;7320012;19;9121;-69
2023/10/09 10:17:16;;;;;;;;;;;18.20;99.90;;;;;;7316255;19;9242;-69
2023/10/09 10:22:51;;;;;;;;;;;18.10;99.90;;;;;;7318063;19;9600;-68
2023/10/09 10:25:41;;;;;;;;;;;18.10;99.90;;;;;;7319015;19;9148;-69
2023/10/09 10:31:07;;;;;;;;;;;18.10;99.90;;;;;;7319566;19;9283;-69
2023/10/09 10:34:07;;;;;;;;;;;18.00;99.90;;;;;;7318795;19;9119;-69
2023/10/09 10:36:42;;;;;;;;;;;17.90;99.90;;;;;;7319163;19;10403;-68
2023/10/09 10:39:21;;;;;;;;;;;17.90;99.90;;;;;;7318895;19;9316;-69
2023/10/09 10:41:55;;;;;;;;;;;17.90;99.90;;;;;;7318084;19;9472;-69
2023/10/09 10:44:41;;;;;;;;;;;17.80;99.90;;;;;;7322481;19;9217;-69
2023/10/09 10:47:22;;;;;;;;;;;17.80;99.90;;;;;;7317613;19;9337;-69
2023/10/09 10:49:58;;;;;;;;;;;17.80;99.90;;;;;;7317179;19;9596;-70
2023/10/09 10:52:41;;;;;;;;;;;17.90;99.90;;;;;;7319572;19;9253;-69
2023/10/09 10:55:17;;;;;;;;;;;17.90;99.90;;;;;;7320448;19;9253;-70
2023/10/09 10:58:00;;;;;;;;;;;17.90;99.90;;;;;;7319778;19;9237;-70
2023/10/09 11:03:17;;;;;;;;;;;17.80;99.90;;;;;;7318296;19;9544;-70
2023/10/09 11:05:50;;;;;;;;;;;17.80;99.90;;;;;;7318748;19;9283;-70
2023/10/09 11:08:32;;;;;;;;;;;17.60;99.90;;;;;;7315962;19;9225;-70
2023/10/09 11:11:19;;;;;;;;;;;17.60;99.90;;;;;;7317921;19;9261;-70
2023/10/09 11:13:54;;;;;;;;;;;17.50;99.90;;;;;;7318059;19;9242;-69
2023/10/09 11:16:41;;;;;;;;;;;17.40;99.90;;;;;;7312035;19;9542;-69
2023/10/09 11:22:28;;;;;;;;;;;17.50;99.90;;;;;;7324132;19;9225;-71
2023/10/09 11:25:11;;;;;;;;;;;17.60;99.90;;;;;;7319764;19;10608;-70
2023/10/09 11:27:50;;;;;;;;;;;17.60;99.90;;;;;;7319023;19;9295;-71
2023/10/09 11:30:26;;;;;;;;;;;17.50;99.90;;;;;;7322770;19;9234;-71
2023/10/09 11:33:14;;;;;;;;;;;17.70;99.90;;;;;;7321537;19;9551;-71
2023/10/09 11:35:42;;;;;;;;;;;17.80;99.90;;;;;;7322673;19;9136;-68
2023/10/09 11:38:23;;;;;;;;;;;18.00;99.90;;;;;;7319228;19;9607;-72
2023/10/09 11:41:18;;;;;;;;;;;18.00;99.90;;;;;;7314741;19;9417;-70
2023/10/09 11:43:53;;;;;;;;;;;17.90;99.90;;;;;;7323819;19;9316;-70
2023/10/09 11:49:34;;;;;;;;;;;17.90;99.90;;;;;;7320241;19;9621;-71
2023/10/09 11:54:56;;;;;;;;;;;18.00;99.90;;;;;;7323602;19;9621;-70
2023/10/09 11:57:33;;;;;;;;;;;18.00;99.90;;;;;;7323239;19;9178;-70
2023/10/09 12:00:06;;;;;;;;;;;18.00;99.90;;;;;;7322835;19;9258;-70
2023/10/09 12:02:43;;;;;;;;;;;18.00;99.90;;;;;;7322259;19;9257;-70
2023/10/09 12:05:16;;;;;;;;;;;18.00;99.90;;;;;;7321585;19;9424;-70
2023/10/09 12:07:46;;;;;;;;;;;18.00;99.90;;;;;;7322999;19;9424;-70
2023/10/09 12:10:24;;;;;;;;;;;18.00;99.90;;;;;;7319900;19;9253;-70
2023/10/09 12:12:57;;;;;;;;;;;18.20;99.90;;;;;;7321828;19;9265;-70
2023/10/09 12:15:36;;;;;;;;;;;18.20;99.90;;;;;;7321413;19;9302;-70
2023/10/09 12:18:08;;;;;;;;;;;18.40;99.90;;;;;;7318938;19;9346;-70
2023/10/09 12:20:39;;;;;;;;;;;18.30;99.90;;;;;;7321489;19;9598;-70
2023/10/09 12:23:13;;;;;;;;;;;18.30;99.90;;;;;;7319959;19;9653;-70
2023/10/09 12:25:44;;;;;;;;;;;18.30;99.90;;;;;;7321656;19;9249;-71
2023/10/09 12:28:20;;;;;;;;;;;18.20;99.90;;;;;;7317388;19;9909;-70
2023/10/09 12:30:50;;;;;;;;;;;18.20;99.90;;;;;;7318090;19;9697;-70
2023/10/09 12:33:27;;;;;;;;;;;18.10;99.90;;;;;;7321840;19;9292;-71
2023/10/09 12:35:59;;;;;;;;;;;18.10;99.90;;;;;;7319469;19;9571;-71
2023/10/09 12:38:31;;;;;;;;;;;18.10;99.90;;;;;;7321260;19;9339;-70
2023/10/09 12:41:19;;;;;;;;;;;18.10;99.90;;;;;;7320186;19;9237;-70
2023/10/09 12:43:51;;;;;;;;;;;18.00;99.90;;;;;;7317624;19;9611;-70
2023/10/09 12:46:22;;;;;;;;;;;17.80;99.90;;;;;;7321812;19;9280;-70
2023/10/09 12:48:54;;;;;;;;;;;17.70;99.90;;;;;;7317313;19;10822;-70
2023/10/09 12:51:29;;;;;;;;;;;17.70;99.90;;;;;;7318062;19;9229;-71
2023/10/09 12:54:01;;;;;;;;;;;17.70;99.90;;;;;;7320697;19;9419;-70
2023/10/09 12:56:37;;;;;;;;;;;17.70;99.90;;;;;;7319756;19;9155;-70
2023/10/09 12:59:14;;;;;;;;;;;17.70;99.90;;;;;;7319128;19;9122;-70
2023/10/09 13:01:51;;;;;;;;;;;17.70;99.90;;;;;;7321492;19;9470;-70
2023/10/09 13:04:22;;;;;;;;;;;17.70;99.90;;;;;;7321738;19;9269;-70
2023/10/09 13:06:54;;;;;;;;;;;17.70;99.90;;;;;;7317572;19;9310;-70
2023/10/09 13:09:32;;;;;;;;;;;17.70;99.90;;;;;;7320058;19;9496;-70
2023/10/09 13:12:02;;;;;;;;;;;17.80;99.90;;;;;;7320654;19;11382;-70
2023/10/09 13:14:35;;;;;;;;;;;17.80;99.90;;;;;;7319741;19;10501;-71
2023/10/09 13:17:09;;;;;;;;;;;17.70;99.90;;;;;;7318151;19;9333;-70
2023/10/09 13:19:38;;;;;;;;;;;17.80;99.90;;;;;;7318693;19;9366;-70
2023/10/09 13:22:12;;;;;;;;;;;17.90;99.90;;;;;;7314164;19;9273;-70
2023/10/09 13:24:41;;;;;;;;;;;17.80;99.90;;;;;;7319514;19;9308;-70
2023/10/09 13:27:11;;;;;;;;;;;17.80;99.90;;;;;;7321245;19;9222;-70
2023/10/09 13:29:42;;;;;;;;;;;17.90;99.90;;;;;;7321723;19;9480;-70
2023/10/09 13:32:16;;;;;;;;;;;17.80;99.90;;;;;;7313518;19;10424;-70
2023/10/09 13:34:48;;;;;;;;;;;17.70;99.90;;;;;;7319168;19;9255;-70
2023/10/09 13:37:21;;;;;;;;;;;17.70;99.90;;;;;;7319196;19;9445;-71
2023/10/09 13:39:56;;;;;;;;;;;17.60;99.90;;;;;;7318564;19;9245;-70
2023/10/09 13:42:26;;;;;;;;;;;17.50;99.90;;;;;;7308015;19;9273;-71
2023/10/09 13:45:04;;;;;;;;;;;17.50;99.90;;;;;;7316319;19;9536;-72
2023/10/09 13:47:33;;;;;;;;;;;17.40;99.90;;;;;;7308874;19;9303;-71
2023/10/09 13:50:03;;;;;;;;;;;17.30;99.90;;;;;;7309399;19;9521;-72
2023/10/09 13:52:32;;;;;;;;;;;17.30;99.90;;;;;;7313916;19;9471;-72
2023/10/09 13:55:15;;;;;;;;;;;17.30;99.90;;;;;;7316422;19;9477;-75
2023/10/09 13:57:45;;;;;;;;;;;17.30;99.90;;;;;;7308056;19;9732;-71
2023/10/09 14:00:34;;;;;;;;;;;17.30;99.90;;;;;;7308848;19;9617;-71
2023/10/09 14:03:11;;;;;;;;;;;17.30;99.90;;;;;;7318597;19;9381;-72
2023/10/09 14:05:51;;;;;;;;;;;17.30;99.90;;;;;;7321781;19;9303;-72
2023/10/09 14:08:25;;;;;;;;;;;17.40;99.90;;;;;;7320550;19;9261;-73
2023/10/09 14:10:55;;;;;;;;;;;17.50;99.90;;;;;;7318086;19;9284;-71
2023/10/09 14:13:28;;;;;;;;;;;17.40;99.90;;;;;;7319531;19;9337;-70
2023/10/09 14:16:02;;;;;;;;;;;17.40;99.90;;;;;;7317775;19;9123;-72
2023/10/09 14:18:32;;;;;;;;;;;17.40;99.90;;;;;;7316243;19;9403;-73
2023/10/09 14:21:04;;;;;;;;;;;17.50;99.90;;;;;;7314616;19;9131;-70
2023/10/09 14:23:34;;;;;;;;;;;17.50;99.90;;;;;;7320059;19;9525;-71
2023/10/09 14:26:06;;;;;;;;;;;17.60;99.90;;;;;;7319190;19;9197;-71
2023/10/09 14:28:35;;;;;;;;;;;17.60;99.90;;;;;;7318515;19;9256;-72
2023/10/09 14:31:11;;;;;;;;;;;17.60;99.90;;;;;;7315343;19;9253;-72
2023/10/09 14:33:40;;;;;;;;;;;17.60;99.90;;;;;;7319298;19;9421;-73
2023/10/09 14:36:14;;;;;;;;;;;17.60;99.90;;;;;;7319568;19;9566;-70
2023/10/09 14:38:46;;;;;;;;;;;17.60;99.90;;;;;;7319311;19;10132;-71
2023/10/09 14:41:23;;;;;;;;;;;17.60;99.90;;;;;;7315801;19;9357;-73
2023/10/09 14:43:53;;;;;;;;;;;17.70;99.90;;;;;;7317183;19;9188;-73
2023/10/09 14:46:26;;;;;;;;;;;17.70;99.90;;;;;;7315199;19;9170;-72
2023/10/09 14:48:55;;;;;;;;;;;17.70;99.90;;;;;;7318958;19;9561;-72
2023/10/09 14:51:29;;;;;;;;;;;17.60;99.90;;;;;;7318513;19;9233;-71
2023/10/09 14:54:01;;;;;;;;;;;17.60;99.90;;;;;;7326749;19;9476;-71
2023/10/09 14:56:36;;;;;;;;;;;17.60;99.90;;;;;;7325864;19;9178;-72
2023/10/09 14:59:06;;;;;;;;;;;17.60;99.90;;;;;;7324038;19;9297;-70
2023/10/09 15:01:37;;;;;;;;;;;17.60;99.90;;;;;;7322426;19;11017;-70
2023/10/09 15:04:10;;;;;;;;;;;17.50;99.90;;;;;;7325758;19;9533;-69
2023/10/09 15:06:38;;;;;;;;;;;17.60;99.90;;;;;;7324557;19;9272;-70
2023/10/09 15:09:21;;;;;;;;;;;17.50;99.90;;;;;;7322685;19;10995;-71
2023/10/09 15:11:51;;;;;;;;;;;17.60;99.90;;;;;;7325284;19;9419;-73
2023/10/09 15:14:21;;;;;;;;;;;17.60;99.90;;;;;;7323677;19;9689;-73
2023/10/09 15:16:53;;;;;;;;;;;17.60;99.90;;;;;;7323568;19;9282;-73
2023/10/09 15:19:29;;;;;;;;;;;17.60;99.90;;;;;;7316832;19;9436;-72
2023/10/09 15:21:58;;;;;;;;;;;17.60;99.90;;;;;;7324586;19;9448;-69
2023/10/09 15:24:29;;;;;;;;;;;17.50;99.90;;;;;;7323841;19;9482;-71
2023/10/09 15:26:59;;;;;;;;;;;17.60;99.90;;;;;;7322729;19;9359;-72
2023/10/09 15:29:32;;;;;;;;;;;17.50;99.90;;;;;;7324152;19;9406;-72
2023/10/09 15:32:14;;;;;;;;;;;17.40;99.90;;;;;;7324324;19;8993;-71
2023/10/09 15:34:43;;;;;;;;;;;17.40;99.90;;;;;;7324410;19;9226;-72
2023/10/09 15:37:13;;;;;;;;;;;17.30;99.90;;;;;;7324432;19;9222;-72
2023/10/09 15:39:42;;;;;;;;;;;17.40;99.90;;;;;;7325569;19;9239;-71
2023/10/09 15:42:13;;;;;;;;;;;17.40;99.90;;;;;;7322758;19;9192;-71
2023/10/09 15:44:42;;;;;;;;;;;17.50;99.90;;;;;;7326160;19;9139;-72
2023/10/09 15:47:15;;;;;;;;;;;17.50;99.90;;;;;;7321030;19;9296;-72
2023/10/09 15:49:44;;;;;;;;;;;17.60;99.90;;;;;;7323669;19;9518;-71
2023/10/09 15:52:14;;;;;;;;;;;17.50;99.90;;;;;;7324780;19;11256;-72
2023/10/09 15:54:43;;;;;;;;;;;17.40;99.90;;;;;;7325198;19;9687;-72
2023/10/09 15:57:12;;;;;;;;;;;17.40;99.90;;;;;;7324361;19;9307;-71
2023/10/09 15:59:41;;;;;;;;;;;17.30;99.90;;;;;;7320333;19;9305;-72
2023/10/09 16:02:15;;;;;;;;;;;17.30;99.90;;;;;;7324710;19;9556;-72
2023/10/09 16:04:44;;;;;;;;;;;17.30;99.90;;;;;;7321345;19;9121;-71
2023/10/09 16:07:15;;;;;;;;;;;17.20;99.90;;;;;;7317788;19;9261;-72
2023/10/09 16:09:46;;;;;;;;;;;17.20;99.90;;;;;;7313441;19;9355;-71
2023/10/09 16:12:16;;;;;;;;;;;17.20;99.90;;;;;;7318164;19;9443;-71
2023/10/09 16:14:45;;;;;;;;;;;17.20;99.90;;;;;;7322745;19;9632;-72
2023/10/09 16:17:17;;;;;;;;;;;17.20;99.90;;;;;;7321490;19;9310;-72
2023/10/09 16:19:47;;;;;;;;;;;17.20;99.90;;;;;;7324556;19;9177;-72
2023/10/09 16:22:17;;;;;;;;;;;17.30;99.90;;;;;;7322279;19;9180;-73